createdAt,value
2023-03-22T00:00:19.127Z,17.50
2023-03-22T00:02:47.415Z,17.30
2023-03-22T00:05:15.721Z,16.50
2023-03-22T00:08:07.219Z,19.40
2023-03-22T00:10:37.277Z,19.00
2023-03-22T00:13:06.711Z,17.70
2023-03-22T00:15:35.153Z,17.70
2023-03-22T00:18:05.992Z,16.10
2023-03-22T00:20:38.635Z,16.80
2023-03-22T00:23:09.262Z,16.80
2023-03-22T00:25:38.002Z,16.80
2023-03-22T00:28:06.385Z,16.40
2023-03-22T00:30:34.569Z,16.30
2023-03-22T00:33:02.941Z,18.10
2023-03-22T00:35:31.864Z,17.50
2023-03-22T00:38:06.237Z,16.40
2023-03-22T00:40:35.466Z,16.00
2023-03-22T00:43:03.953Z,17.40
2023-03-22T00:45:32.291Z,15.80
2023-03-22T00:48:01.397Z,18.00
2023-03-22T00:50:30.369Z,16.70
2023-03-22T00:52:58.919Z,17.30
2023-03-22T00:55:28.510Z,18.50
2023-03-22T00:57:57.320Z,17.20
2023-03-22T01:00:25.745Z,17.40
2023-03-22T01:02:59.870Z,16.60
2023-03-22T01:05:28.581Z,15.70
2023-03-22T01:07:57.024Z,17.00
2023-03-22T01:10:30.528Z,16.00
2023-03-22T01:12:59.187Z,17.70
2023-03-22T01:15:30.768Z,16.30
2023-03-22T01:17:59.217Z,16.60
2023-03-22T01:20:28.218Z,16.50
2023-03-22T01:22:56.500Z,16.60
2023-03-22T01:25:24.781Z,15.30
2023-03-22T01:27:54.018Z,15.40
2023-03-22T01:30:22.370Z,15.00
2023-03-22T01:32:51.668Z,15.30
2023-03-22T01:35:20.054Z,14.30
2023-03-22T01:37:48.248Z,16.10
2023-03-22T01:40:17.535Z,15.10
2023-03-22T01:42:46.126Z,15.50
2023-03-22T01:45:30.476Z,13.90
2023-03-22T01:48:01.942Z,15.90
2023-03-22T01:50:32.663Z,16.20
2023-03-22T01:53:01.252Z,15.30
2023-03-22T01:55:34.254Z,15.70
2023-03-22T01:58:18.227Z,15.40
2023-03-22T02:00:53.419Z,15.80
2023-03-22T02:03:38.584Z,15.30
2023-03-22T02:06:08.028Z,16.90
2023-03-22T02:08:36.275Z,16.70
2023-03-22T02:11:14.851Z,17.30
2023-03-22T02:13:52.163Z,15.80
2023-03-22T02:17:16.122Z,17.60
2023-03-22T02:20:10.939Z,16.30
2023-03-22T02:23:13.856Z,17.60
2023-03-22T02:26:03.756Z,17.70
2023-03-22T02:28:51.199Z,19.30
2023-03-22T02:31:47.275Z,19.00
2023-03-22T02:34:23.961Z,17.40
2023-03-22T02:37:03.497Z,18.10
2023-03-22T02:39:41.295Z,17.30
2023-03-22T02:42:53.171Z,19.70
2023-03-22T02:45:36.735Z,16.10
2023-03-22T02:48:12.748Z,16.90
2023-03-22T02:50:48.199Z,17.90
2023-03-22T02:53:19.656Z,17.50
2023-03-22T02:56:26.750Z,17.50
2023-03-22T02:58:56.652Z,18.40
2023-03-22T03:01:29.360Z,18.50
2023-03-22T03:04:01.146Z,19.80
2023-03-22T03:06:31.248Z,19.00
2023-03-22T03:09:02.964Z,20.40
2023-03-22T03:11:32.393Z,17.70
2023-03-22T03:14:01.055Z,16.90
2023-03-22T03:16:30.898Z,17.10
2023-03-22T03:19:03.769Z,16.80
2023-03-22T03:21:42.679Z,17.10
2023-03-22T03:24:14.055Z,17.30
2023-03-22T03:26:57.053Z,19.00
2023-03-22T03:29:41.072Z,17.30
2023-03-22T03:32:38.547Z,17.70
2023-03-22T03:35:23.169Z,18.20
2023-03-22T03:37:54.034Z,16.90
2023-03-22T03:40:47.038Z,17.60
2023-03-22T03:43:16.791Z,17.70
2023-03-22T03:45:47.559Z,17.90
2023-03-22T03:48:19.353Z,18.80
2023-03-22T03:50:50.482Z,18.60
2023-03-22T03:53:19.548Z,16.10
2023-03-22T03:55:47.722Z,19.90
2023-03-22T03:58:16.941Z,18.00
2023-03-22T04:00:46.490Z,20.50
2023-03-22T04:03:50.846Z,18.70
2023-03-22T04:06:40.293Z,17.00
2023-03-22T04:09:12.111Z,18.40
2023-03-22T04:11:44.405Z,16.40
2023-03-22T04:14:14.154Z,18.10
2023-03-22T04:16:42.675Z,16.70
2023-03-22T04:19:14.395Z,17.50
2023-03-22T04:21:43.694Z,16.60
2023-03-22T04:24:12.900Z,16.20
2023-03-22T04:26:43.122Z,17.30
2023-03-22T04:29:23.169Z,16.20
2023-03-22T04:31:57.384Z,16.40
2023-03-22T04:34:31.709Z,18.50
2023-03-22T04:37:08.239Z,17.60
2023-03-22T04:39:49.870Z,16.00
2023-03-22T04:42:34.673Z,17.00
2023-03-22T04:45:16.814Z,15.70
2023-03-22T04:47:47.917Z,15.90
2023-03-22T04:50:17.171Z,16.60
2023-03-22T04:52:50.522Z,16.90
2023-03-22T04:55:21.312Z,16.70
2023-03-22T04:57:51.293Z,17.60
2023-03-22T05:00:21.892Z,17.80
2023-03-22T05:02:52.277Z,18.50
2023-03-22T05:05:51.012Z,19.00
2023-03-22T05:08:21.387Z,19.70
2023-03-22T05:10:52.365Z,18.10
2023-03-22T05:13:21.733Z,17.90
2023-03-22T05:15:52.049Z,16.40
2023-03-22T05:18:27.853Z,19.60
2023-03-22T05:20:57.829Z,18.40
2023-03-22T05:23:28.468Z,17.70
2023-03-22T05:25:58.434Z,18.60
2023-03-22T05:28:32.044Z,18.20
2023-03-22T05:31:18.159Z,18.20
2023-03-22T05:34:04.271Z,17.80
2023-03-22T05:36:36.606Z,20.10
2023-03-22T05:39:18.122Z,21.30
2023-03-22T05:41:47.324Z,21.50
2023-03-22T05:44:15.964Z,34.80
2023-03-22T05:46:53.825Z,33.90
2023-03-22T05:49:49.304Z,39.80
2023-03-22T05:52:22.745Z,44.70
2023-03-22T05:55:06.919Z,32.30
2023-03-22T05:57:35.605Z,24.30
2023-03-22T06:00:13.365Z,23.30
2023-03-22T06:02:44.441Z,27.00
2023-03-22T06:05:16.871Z,24.10
2023-03-22T06:07:45.355Z,24.90
2023-03-22T06:10:18.443Z,23.80
2023-03-22T06:12:55.125Z,31.10
2023-03-22T06:15:28.144Z,29.30
2023-03-22T06:18:08.611Z,22.10
2023-03-22T06:20:40.902Z,22.40
2023-03-22T06:23:18.210Z,24.00
2023-03-22T06:25:47.423Z,23.10
2023-03-22T06:28:17.002Z,21.50
2023-03-22T06:30:51.223Z,24.40
2023-03-22T06:33:37.564Z,24.50
2023-03-22T06:36:23.630Z,19.50
2023-03-22T06:39:05.480Z,21.70
2023-03-22T06:41:34.602Z,21.60
2023-03-22T06:44:03.145Z,24.00
2023-03-22T06:49:38.240Z,23.80
2023-03-22T06:52:06.722Z,21.80
2023-03-22T06:54:36.850Z,21.60
2023-03-22T06:57:05.432Z,22.50
2023-03-22T06:59:35.055Z,21.80
2023-03-22T07:02:03.945Z,24.80
2023-03-22T07:04:33.336Z,24.20
2023-03-22T07:07:02.349Z,22.60
2023-03-22T07:09:31.959Z,24.80
2023-03-22T07:12:01.677Z,21.90
2023-03-22T07:14:31.097Z,23.80
2023-03-22T07:17:27.616Z,24.90
2023-03-22T07:19:57.320Z,23.30
2023-03-22T07:22:25.911Z,22.40
2023-03-22T07:25:01.964Z,22.40
2023-03-22T07:27:51.764Z,21.90
2023-03-22T07:30:22.749Z,19.70
2023-03-22T07:32:51.313Z,20.00
2023-03-22T07:35:19.661Z,20.60
2023-03-22T07:37:49.103Z,22.50
2023-03-22T07:40:26.154Z,19.00
2023-03-22T07:42:56.041Z,18.30
2023-03-22T07:45:43.989Z,17.40
2023-03-22T07:48:54.033Z,17.00
2023-03-22T07:51:42.365Z,16.30
2023-03-22T07:54:14.029Z,18.70
2023-03-22T07:56:48.238Z,18.00
2023-03-22T07:59:18.024Z,17.60
2023-03-22T08:01:46.493Z,18.30
2023-03-22T08:04:32.120Z,17.70
2023-03-22T08:07:05.922Z,18.80
2023-03-22T08:09:37.830Z,19.40
2023-03-22T08:12:07.499Z,17.10
2023-03-22T08:20:20.160Z,16.40
2023-03-22T08:22:55.493Z,17.50
2023-03-22T08:25:44.013Z,16.70
2023-03-22T08:28:13.417Z,16.30
2023-03-22T08:30:43.136Z,16.60
2023-03-22T08:33:11.370Z,20.00
2023-03-22T08:35:40.141Z,17.50
2023-03-22T08:38:09.321Z,18.40
2023-03-22T08:40:46.217Z,19.90
2023-03-22T08:43:16.214Z,21.00
2023-03-22T08:45:47.810Z,18.50
2023-03-22T08:48:19.039Z,18.50
2023-03-22T08:51:07.649Z,18.10
2023-03-22T08:53:50.361Z,19.20
2023-03-22T08:56:44.841Z,18.00
2023-03-22T08:59:34.728Z,18.10
2023-03-22T09:02:27.621Z,18.40
2023-03-22T09:04:56.854Z,18.20
2023-03-22T09:07:26.060Z,18.40
2023-03-22T09:10:07.758Z,18.60
2023-03-22T09:12:38.694Z,19.60
2023-03-22T09:15:07.826Z,18.40
2023-03-22T09:17:38.032Z,18.10
2023-03-22T09:20:15.155Z,19.40
2023-03-22T09:22:44.862Z,21.00
2023-03-22T09:25:14.648Z,20.10
2023-03-22T09:27:46.003Z,20.60
2023-03-22T09:30:14.285Z,20.00
2023-03-22T09:32:42.616Z,18.70
2023-03-22T09:35:12.058Z,18.00
2023-03-22T09:37:49.678Z,16.60
2023-03-22T09:40:18.099Z,20.00
2023-03-22T09:42:48.496Z,16.20
2023-03-22T09:45:21.084Z,15.80
2023-03-22T09:47:51.698Z,14.80
2023-03-22T09:50:22.328Z,15.30
2023-03-22T09:52:53.395Z,14.90
2023-03-22T09:55:22.662Z,14.60
2023-03-22T09:58:32.634Z,14.80
2023-03-22T10:01:05.490Z,15.10
2023-03-22T10:04:12.786Z,14.90
2023-03-22T10:06:43.443Z,15.50
2023-03-22T10:09:45.164Z,15.20
2023-03-22T10:12:18.915Z,15.40
2023-03-22T10:14:59.054Z,15.00
2023-03-22T10:17:28.273Z,16.30
2023-03-22T10:20:08.744Z,15.80
2023-03-22T10:22:42.154Z,16.30
2023-03-22T10:25:17.901Z,15.10
2023-03-22T10:27:47.287Z,14.00
2023-03-22T10:30:23.552Z,15.40
2023-03-22T10:35:26.601Z,13.10
2023-03-22T10:37:56.171Z,15.90
2023-03-22T10:40:28.910Z,15.90
2023-03-22T10:43:00.907Z,14.40
2023-03-22T10:45:29.316Z,14.00
2023-03-22T10:48:00.309Z,15.00
2023-03-22T10:50:32.154Z,15.30
2023-03-22T10:53:30.484Z,16.20
2023-03-22T10:55:58.761Z,15.90
2023-03-22T10:58:34.339Z,13.00
2023-03-22T11:01:11.153Z,12.00
2023-03-22T11:03:41.886Z,17.20
2023-03-22T11:06:14.287Z,12.70
2023-03-22T11:08:45.212Z,13.60
2023-03-22T11:11:29.692Z,14.20
2023-03-22T11:14:17.520Z,14.00
2023-03-22T11:17:02.275Z,13.80
2023-03-22T11:19:36.749Z,16.40
2023-03-22T11:22:06.834Z,14.80
2023-03-22T11:24:35.408Z,14.30
2023-03-22T11:27:25.430Z,11.10
2023-03-22T11:29:58.587Z,11.90
2023-03-22T11:32:33.229Z,12.10
2023-03-22T11:35:13.973Z,11.80
2023-03-22T11:37:42.608Z,12.20
2023-03-22T11:40:15.795Z,12.90
2023-03-22T11:42:44.254Z,14.80
2023-03-22T11:45:23.969Z,17.20
2023-03-22T11:47:52.419Z,13.30
2023-03-22T11:50:29.292Z,14.70
2023-03-22T11:52:58.654Z,12.70
2023-03-22T11:55:27.162Z,12.80
2023-03-22T11:58:04.068Z,12.50
2023-03-22T12:00:37.795Z,12.10
2023-03-22T12:03:10.787Z,12.90
2023-03-22T12:40:52.591Z,11.40
2023-03-22T12:43:33.685Z,11.20
2023-03-22T12:46:09.322Z,11.40
2023-03-22T12:48:41.538Z,12.30
2023-03-22T12:51:12.338Z,11.30
2023-03-22T12:53:43.993Z,15.30
2023-03-22T12:56:14.205Z,15.60
2023-03-22T12:58:45.298Z,11.40
2023-03-22T13:01:31.793Z,11.40
2023-03-22T13:04:00.240Z,12.30
2023-03-22T13:06:35.063Z,11.20
2023-03-22T13:09:09.487Z,12.10
2023-03-22T13:11:42.707Z,11.80
2023-03-22T13:14:34.508Z,12.60
2023-03-22T13:17:03.991Z,12.40
2023-03-22T13:19:38.427Z,11.40
2023-03-22T13:22:19.090Z,11.20
2023-03-22T13:25:01.157Z,13.80
2023-03-22T13:27:38.153Z,13.00
2023-03-22T13:30:22.004Z,12.90
2023-03-22T13:32:57.351Z,11.80
2023-03-22T13:35:45.591Z,11.70
2023-03-22T13:38:24.589Z,11.90
2023-03-22T13:41:14.149Z,10.60
2023-03-22T13:43:47.241Z,11.30
2023-03-22T13:46:20.041Z,10.00
2023-03-22T13:49:00.736Z,10.70
2023-03-22T13:51:32.791Z,11.40
2023-03-22T13:54:19.313Z,13.50
2023-03-22T13:56:58.723Z,12.90
2023-03-22T13:59:30.070Z,11.10
2023-03-22T14:02:26.434Z,11.20
2023-03-22T14:04:59.012Z,12.80
2023-03-22T14:07:35.747Z,11.60
2023-03-22T14:10:17.073Z,12.00
2023-03-22T14:12:48.787Z,10.50
2023-03-22T14:15:29.038Z,12.60
2023-03-22T14:18:03.515Z,13.90
2023-03-22T14:20:35.760Z,11.00
